Time;durP1;ratioP1;P1;durP2;ratioP2;P2;SDS_P1;SDS_P2;PMS_P1;PMS_P2;Temp;Humidity;BMP_temperature;BMP_pressure;BME280_temperature;BME280_humidity;BME280_pressure;Samples;Min_cycle;Max_cycle;Signal;HPM_P1;HPM_P2
2022/06/18 00:00:48;;;;;;;;;;;;;;;;;;5029602;28;1268;-62
2022/06/18 00:03:14;;;;;;;;;;;;;;;;;;5041510;28;1327;-61
2022/06/18 00:05:40;;;;;;;;;;;;;;;;;;5042757;28;1319;-62
2022/06/18 00:08:10;;;;;;;;;;;;;;;;;;5041324;28;1318;-62
2022/06/18 00:10:35;;;;;;;;;;;;;;;;;;5036462;28;1128;-62
2022/06/18 00:15:56;;;;;;;;;;;;;;;;;;5042903;28;1947;-62
2022/06/18 00:18:21;;;;;;;;;;;;;;;;;;5043611;28;1256;-62
2022/06/18 00:20:47;;;;;;;;;;;;;;;;;;5043984;28;823;-62
2022/06/18 00:23:14;;;;;;;;;;;;;;;;;;5042150;28;1252;-62
2022/06/18 00:25:40;;;;;;;;;;;;;;;;;;5043701;28;1208;-62
2022/06/18 00:28:13;;;;;;;;;;;;;;;;;;5042601;28;1310;-61
2022/06/18 00:30:39;;;;;;;;;;;;;;;;;;5038932;28;1457;-61
2022/06/18 00:33:04;;;;;;;;;;;;;;;;;;5042614;28;1551;-62
2022/06/18 00:35:29;;;;;;;;;;;;;;;;;;5043743;28;1902;-62
2022/06/18 00:37:56;;;;;;;;;;;;;;;;;;5041706;28;1358;-61
2022/06/18 00:40:25;;;;;;;;;;;;;;;;;;5043545;28;1164;-61
2022/06/18 00:42:50;;;;;;;;;;;;;;;;;;5043766;28;1500;-61
2022/06/18 00:45:18;;;;;;;;;;;;;;;;;;5042727;28;1532;-61
2022/06/18 00:48:00;;;;;;;;;;;;;;;;;;5042777;28;1251;-61
2022/06/18 00:50:30;;;;;;;;;;;;;;;;;;5043301;28;1155;-62
2022/06/18 00:53:04;;;;;;;;;;;;;;;;;;5024863;28;1309;-62
2022/06/18 00:55:44;;;;;;;;;;;;;;;;;;5043183;28;1898;-62
2022/06/18 00:58:15;;;;;;;;;;;;;;;;;;5039916;28;1435;-61
2022/06/18 01:00:42;;;;;;;;;;;;;;;;;;5041275;28;1425;-61
2022/06/18 01:03:22;;;;;;;;;;;;;;;;;;5042269;28;1207;-62
2022/06/18 01:05:47;;;;;;;;;;;;;;;;;;5023557;28;997;-61
2022/06/18 01:08:15;;;;;;;;;;;;;;;;;;5032741;28;1438;-62
2022/06/18 01:10:42;;;;;;;;;;;;;;;;;;5041936;28;1500;-61
2022/06/18 01:13:10;;;;;;;;;;;;;;;;;;5043402;28;1224;-61
2022/06/18 01:15:36;;;;;;;;;;;;;;;;;;5041685;28;1897;-61
2022/06/18 01:18:03;;;;;;;;;;;;;;;;;;5042937;28;1263;-61
2022/06/18 01:20:28;;;;;;;;;;;;;;;;;;5025874;28;1795;-61
2022/06/18 01:22:57;;;;;;;;;;;;;;;;;;5042433;28;1344;-61
2022/06/18 01:25:23;;;;;;;;;;;;;;;;;;5041881;28;1320;-61
2022/06/18 01:27:48;;;;;;;;;;;;;;;;;;5042629;28;1390;-61
2022/06/18 01:30:15;;;;;;;;;;;;;;;;;;5042015;28;1602;-61
2022/06/18 01:32:45;;;;;;;;;;;;;;;;;;5040350;28;1637;-61
2022/06/18 01:35:11;;;;;;;;;;;;;;;;;;5042567;28;1944;-61
2022/06/18 01:37:36;;;;;;;;;;;;;;;;;;5041152;28;1340;-62
2022/06/18 01:40:02;;;;;;;;;;;;;;;;;;5041941;28;1256;-61
2022/06/18 01:42:39;;;;;;;;;;;;;;;;;;5041584;28;1346;-61
2022/06/18 01:45:12;;;;;;;;;;;;;;;;;;5041811;28;1324;-61
2022/06/18 01:47:43;;;;;;;;;;;;;;;;;;5024378;28;1459;-61
2022/06/18 01:50:09;;;;;;;;;;;;;;;;;;5041343;28;1343;-61
2022/06/18 01:52:38;;;;;;;;;;;;;;;;;;5041056;28;1315;-61
2022/06/18 01:55:10;;;;;;;;;;;;;;;;;;5040674;28;1949;-61
2022/06/18 01:57:37;;;;;;;;;;;;;;;;;;5030289;28;1434;-61
2022/06/18 02:00:07;;;;;;;;;;;;;;;;;;5041683;28;1430;-62
2022/06/18 02:02:32;;;;;;;;;;;;;;;;;;5042309;28;1247;-61
2022/06/18 02:04:57;;;;;;;;;;;;;;;;;;5042393;28;1179;-61
2022/06/18 02:07:22;;;;;;;;;;;;;;;;;;5042044;28;1508;-62
2022/06/18 02:09:52;;;;;;;;;;;;;;;;;;5037783;28;1599;-61
2022/06/18 02:12:19;;;;;;;;;;;;;;;;;;5041122;28;1485;-61
2022/06/18 02:14:46;;;;;;;;;;;;;;;;;;5041825;28;1897;-61
2022/06/18 02:17:17;;;;;;;;;;;;;;;;;;5023362;28;1316;-61
2022/06/18 02:19:43;;;;;;;;;;;;;;;;;;5042164;28;1298;-61
2022/06/18 02:22:09;;;;;;;;;;;;;;;;;;5042077;28;1071;-62
2022/06/18 02:24:35;;;;;;;;;;;;;;;;;;5012637;28;1501;-61
2022/06/18 02:27:00;;;;;;;;;;;;;;;;;;5040805;28;1317;-61
2022/06/18 02:29:27;;;;;;;;;;;;;;;;;;5041325;28;1293;-62
2022/06/18 02:31:53;;;;;;;;;;;;;;;;;;5040150;28;1356;-62
2022/06/18 02:34:23;;;;;;;;;;;;;;;;;;5042498;28;1898;-62
2022/06/18 02:36:48;;;;;;;;;;;;;;;;;;5044342;28;1214;-62
2022/06/18 02:39:26;;;;;;;;;;;;;;;;;;5044730;28;1371;-62
2022/06/18 02:42:06;;;;;;;;;;;;;;;;;;5041144;28;1332;-62
2022/06/18 02:44:31;;;;;;;;;;;;;;;;;;5041536;28;1279;-61
2022/06/18 02:46:59;;;;;;;;;;;;;;;;;;5039411;28;1289;-62
2022/06/18 02:49:25;;;;;;;;;;;;;;;;;;5040884;28;1614;-62
2022/06/18 02:51:50;;;;;;;;;;;;;;;;;;5041672;28;1492;-62
2022/06/18 02:54:16;;;;;;;;;;;;;;;;;;5039290;28;1890;-62
2022/06/18 02:56:43;;;;;;;;;;;;;;;;;;5039754;28;1367;-62
2022/06/18 02:59:08;;;;;;;;;;;;;;;;;;5041112;28;1270;-62
2022/06/18 03:01:34;;;;;;;;;;;;;;;;;;5040433;28;1352;-61
2022/06/18 03:04:00;;;;;;;;;;;;;;;;;;5041375;28;1222;-62
2022/06/18 03:06:27;;;;;;;;;;;;;;;;;;5021791;28;835;-62
2022/06/18 03:08:52;;;;;;;;;;;;;;;;;;5030845;28;1422;-62
2022/06/18 03:14:04;;;;;;;;;;;;;;;;;;5041386;28;1957;-62
2022/06/18 03:16:29;;;;;;;;;;;;;;;;;;5040004;28;1358;-62
2022/06/18 03:18:55;;;;;;;;;;;;;;;;;;5041007;28;1476;-62
2022/06/18 03:21:29;;;;;;;;;;;;;;;;;;5039629;28;1364;-62
2022/06/18 03:23:55;;;;;;;;;;;;;;;;;;5038046;28;1556;-62
2022/06/18 03:26:20;;;;;;;;;;;;;;;;;;5040424;28;1500;-62
2022/06/18 03:28:46;;;;;;;;;;;;;;;;;;5040205;28;1436;-62
2022/06/18 03:31:11;;;;;;;;;;;;;;;;;;5030881;28;1449;-62
2022/06/18 03:33:37;;;;;;;;;;;;;;;;;;5041315;28;1137;-61
2022/06/18 03:36:03;;;;;;;;;;;;;;;;;;5041015;28;1963;-61
2022/06/18 03:38:28;;;;;;;;;;;;;;;;;;5038660;28;1307;-61
2022/06/18 03:40:53;;;;;;;;;;;;;;;;;;5044476;28;1519;-61
2022/06/18 03:43:19;;;;;;;;;;;;;;;;;;5047182;28;1235;-61
2022/06/18 03:45:45;;;;;;;;;;;;;;;;;;5038112;28;1468;-61
2022/06/18 03:48:29;;;;;;;;;;;;;;;;;;5040346;28;1256;-61
2022/06/18 03:50:55;;;;;;;;;;;;;;;;;;5040953;28;890;-61
2022/06/18 03:53:20;;;;;;;;;;;;;;;;;;5039071;28;1476;-61
2022/06/18 03:55:46;;;;;;;;;;;;;;;;;;5039707;28;1905;-61
2022/06/18 03:58:11;;;;;;;;;;;;;;;;;;5040397;28;1357;-61
2022/06/18 04:00:37;;;;;;;;;;;;;;;;;;5038626;28;1473;-61
2022/06/18 04:03:03;;;;;;;;;;;;;;;;;;5040789;28;1101;-62
2022/06/18 04:05:29;;;;;;;;;;;;;;;;;;5040704;28;1065;-61
2022/06/18 04:07:55;;;;;;;;;;;;;;;;;;5037268;28;1477;-61
2022/06/18 04:10:21;;;;;;;;;;;;;;;;;;5040397;28;1221;-61
2022/06/18 04:12:46;;;;;;;;;;;;;;;;;;5039565;28;1547;-61
2022/06/18 04:15:13;;;;;;;;;;;;;;;;;;5038418;28;1969;-61
2022/06/18 04:17:38;;;;;;;;;;;;;;;;;;5039984;28;1553;-61
2022/06/18 04:20:04;;;;;;;;;;;;;;;;;;5040526;28;1247;-61
2022/06/18 04:22:29;;;;;;;;;;;;;;;;;;5039905;28;1366;-61
2022/06/18 04:24:54;;;;;;;;;;;;;;;;;;5039775;28;1498;-61
2022/06/18 04:27:20;;;;;;;;;;;;;;;;;;5040490;28;1151;-58
2022/06/18 04:29:45;;;;;;;;;;;;;;;;;;5038686;28;1504;-61
2022/06/18 04:32:10;;;;;;;;;;;;;;;;;;5038362;28;1472;-61
2022/06/18 04:34:35;;;;;;;;;;;;;;;;;;5040436;28;1894;-61
2022/06/18 04:37:01;;;;;;;;;;;;;;;;;;5040760;28;1402;-62
2022/06/18 04:39:26;;;;;;;;;;;;;;;;;;5036831;28;1533;-61
2022/06/18 04:41:51;;;;;;;;;;;;;;;;;;5043216;28;1395;-61
2022/06/18 04:44:16;;;;;;;;;;;;;;;;;;5040951;28;1428;-61
2022/06/18 04:46:41;;;;;;;;;;;;;;;;;;5042798;28;1313;-61
2022/06/18 04:49:07;;;;;;;;;;;;;;;;;;5043059;28;1375;-61
2022/06/18 04:51:32;;;;;;;;;;;;;;;;;;5025781;28;1516;-62
2022/06/18 04:53:57;;;;;;;;;;;;;;;;;;5042060;28;2332;-61
2022/06/18 04:56:22;;;;;;;;;;;;;;;;;;5043467;28;1154;-61
2022/06/18 04:58:47;;;;;;;;;;;;;;;;;;5041941;28;1348;-62
2022/06/18 05:01:14;;;;;;;;;;;;;;;;;;5042019;28;1646;-62
2022/06/18 05:03:39;;;;;;;;;;;;;;;;;;5040662;28;1354;-62
2022/06/18 05:06:04;;;;;;;;;;;;;;;;;;5034710;28;1267;-61
2022/06/18 05:08:29;;;;;;;;;;;;;;;;;;5037706;28;1413;-61
2022/06/18 05:10:55;;;;;;;;;;;;;;;;;;5035916;28;1291;-62
2022/06/18 05:13:20;;;;;;;;;;;;;;;;;;5034537;28;1371;-62
2022/06/18 05:15:46;;;;;;;;;;;;;;;;;;5039123;28;1938;-62
2022/06/18 05:18:13;;;;;;;;;;;;;;;;;;5017037;28;1204;-62
2022/06/18 05:20:38;;;;;;;;;;;;;;;;;;5032963;28;1220;-61
2022/06/18 05:23:03;;;;;;;;;;;;;;;;;;5033506;28;1410;-62
2022/06/18 05:25:28;;;;;;;;;;;;;;;;;;5042799;28;1157;-63
2022/06/18 05:27:54;;;;;;;;;;;;;;;;;;5041971;28;1423;-62
2022/06/18 05:30:21;;;;;;;;;;;;;;;;;;5041260;28;1316;-62
2022/06/18 05:32:47;;;;;;;;;;;;;;;;;;5040827;28;1630;-63
2022/06/18 05:35:12;;;;;;;;;;;;;;;;;;5042675;28;1898;-62
2022/06/18 05:37:38;;;;;;;;;;;;;;;;;;5040937;28;1396;-63
2022/06/18 05:40:04;;;;;;;;;;;;;;;;;;5041317;28;1491;-64
2022/06/18 05:42:29;;;;;;;;;;;;;;;;;;5041223;28;1450;-64
2022/06/18 05:44:55;;;;;;;;;;;;;;;;;;5042388;28;1301;-64
2022/06/18 05:47:23;;;;;;;;;;;;;;;;;;5041751;28;1516;-63
2022/06/18 05:49:49;;;;;;;;;;;;;;;;;;5041704;28;1263;-63
2022/06/18 05:52:14;;;;;;;;;;;;;;;;;;5042595;28;1443;-63
2022/06/18 05:54:39;;;;;;;;;;;;;;;;;;5023652;28;1898;-63
2022/06/18 05:57:04;;;;;;;;;;;;;;;;;;5041733;28;1331;-62
2022/06/18 05:59:30;;;;;;;;;;;;;;;;;;5041853;28;1251;-62
2022/06/18 06:01:56;;;;;;;;;;;;;;;;;;5040022;28;1367;-62
2022/06/18 06:04:24;;;;;;;;;;;;;;;;;;5032961;28;1184;-62
2022/06/18 06:06:51;;;;;;;;;;;;;;;;;;5040738;28;1492;-63
2022/06/18 06:11:28;;;;;;;;;;;;;;;;;;5041767;28;1243;-63
2022/06/18 06:12:01;;;;;;;;;;;;;;;;;;5039110;28;1476;-64
2022/06/18 06:14:27;;;;;;;;;;;;;;;;;;5039758;28;1906;-63
2022/06/18 06:16:52;;;;;;;;;;;;;;;;;;5041589;28;1547;-62
2022/06/18 06:19:17;;;;;;;;;;;;;;;;;;5039920;28;1320;-63
2022/06/18 06:21:42;;;;;;;;;;;;;;;;;;5039458;28;1370;-63
2022/06/18 06:24:07;;;;;;;;;;;;;;;;;;5029322;28;1137;-63
2022/06/18 06:26:34;;;;;;;;;;;;;;;;;;5040985;28;890;-63
2022/06/18 06:29:00;;;;;;;;;;;;;;;;;;5035906;28;1347;-63
2022/06/18 06:31:26;;;;;;;;;;;;;;;;;;5023070;28;1320;-62
2022/06/18 06:33:51;;;;;;;;;;;;;;;;;;5041897;28;1967;-62
2022/06/18 06:36:17;;;;;;;;;;;;;;;;;;5041225;28;1363;-62
2022/06/18 06:38:42;;;;;;;;;;;;;;;;;;5041012;28;1376;-63
2022/06/18 06:41:15;;;;;;;;;;;;;;;;;;5039563;28;1522;-63
2022/06/18 06:43:40;;;;;;;;;;;;;;;;;;5022177;28;1324;-63
2022/06/18 06:46:05;;;;;;;;;;;;;;;;;;5040978;28;1324;-63
2022/06/18 06:48:31;;;;;;;;;;;;;;;;;;5040365;28;1499;-63
2022/06/18 06:50:56;;;;;;;;;;;;;;;;;;5030746;28;1529;-64
2022/06/18 06:53:21;;;;;;;;;;;;;;;;;;5046188;28;1409;-63
2022/06/18 06:58:30;;;;;;;;;;;;;;;;;;5044038;28;1401;-62
2022/06/18 07:00:57;;;;;;;;;;;;;;;;;;5045308;28;1422;-63
2022/06/18 07:03:25;;;;;;;;;;;;;;;;;;5046053;28;1243;-64
2022/06/18 07:05:51;;;;;;;;;;;;;;;;;;5021577;28;859;-63
2022/06/18 07:08:16;;;;;;;;;;;;;;;;;;5017822;28;1637;-63
2022/06/18 07:10:43;;;;;;;;;;;;;;;;;;5040406;28;1318;-63
2022/06/18 07:13:08;;;;;;;;;;;;;;;;;;5039436;28;1371;-63
2022/06/18 07:15:34;;;;;;;;;;;;;;;;;;5040654;28;1951;-63
2022/06/18 07:18:00;;;;;;;;;;;;;;;;;;5040989;28;1346;-63
2022/06/18 07:20:25;;;;;;;;;;;;;;;;;;5041248;28;1162;-64
2022/06/18 07:22:50;;;;;;;;;;;;;;;;;;5039650;28;1362;-63
2022/06/18 07:25:16;;;;;;;;;;;;;;;;;;5041363;28;1137;-63
2022/06/18 07:27:42;;;;;;;;;;;;;;;;;;5039371;28;1472;-63
2022/06/18 07:30:08;;;;;;;;;;;;;;;;;;5040085;28;1315;-63
2022/06/18 07:32:34;;;;;;;;;;;;;;;;;;5040625;28;1374;-63
2022/06/18 07:34:59;;;;;;;;;;;;;;;;;;5041069;28;1898;-63
2022/06/18 07:37:25;;;;;;;;;;;;;;;;;;5039429;28;1494;-63
2022/06/18 07:39:50;;;;;;;;;;;;;;;;;;5040435;28;1200;-63
2022/06/18 07:42:17;;;;;;;;;;;;;;;;;;5039058;28;1486;-63
2022/06/18 07:44:42;;;;;;;;;;;;;;;;;;5022426;28;1414;-63
2022/06/18 07:47:10;;;;;;;;;;;;;;;;;;5039949;28;1366;-64
2022/06/18 07:49:35;;;;;;;;;;;;;;;;;;5039372;28;1426;-64
2022/06/18 07:52:01;;;;;;;;;;;;;;;;;;5041044;28;1179;-64
2022/06/18 07:54:26;;;;;;;;;;;;;;;;;;5039107;28;1893;-61
2022/06/18 07:56:51;;;;;;;;;;;;;;;;;;5039499;28;1455;-64
2022/06/18 07:59:20;;;;;;;;;;;;;;;;;;5039600;28;1336;-64
2022/06/18 08:01:45;;;;;;;;;;;;;;;;;;5038030;28;1300;-64
2022/06/18 08:04:10;;;;;;;;;;;;;;;;;;5039212;28;1490;-63
2022/06/18 08:06:35;;;;;;;;;;;;;;;;;;5043577;28;1342;-63
2022/06/18 08:09:01;;;;;;;;;;;;;;;;;;5042680;28;1379;-63
2022/06/18 08:11:29;;;;;;;;;;;;;;;;;;5047786;28;1097;-64
2022/06/18 08:13:55;;;;;;;;;;;;;;;;;;5053476;28;1894;-64
2022/06/18 08:16:21;;;;;;;;;;;;;;;;;;5045117;28;1580;-63
2022/06/18 08:18:46;;;;;;;;;;;;;;;;;;5042451;28;1331;-63
2022/06/18 08:21:17;;;;;;;;;;;;;;;;;;5043972;28;1188;-63
2022/06/18 08:23:43;;;;;;;;;;;;;;;;;;5042381;28;1484;-63
2022/06/18 08:26:09;;;;;;;;;;;;;;;;;;5044109;28;1152;-63
2022/06/18 08:28:35;;;;;;;;;;;;;;;;;;5041770;28;1546;-62
2022/06/18 08:31:01;;;;;;;;;;;;;;;;;;5043623;28;1271;-63
2022/06/18 08:33:28;;;;;;;;;;;;;;;;;;5043245;28;1563;-63
2022/06/18 08:35:53;;;;;;;;;;;;;;;;;;5043643;28;1895;-63
2022/06/18 08:38:19;;;;;;;;;;;;;;;;;;5043551;28;1287;-63
2022/06/18 08:40:59;;;;;;;;;;;;;;;;;;5025280;28;1244;-63
2022/06/18 08:43:46;;;;;;;;;;;;;;;;;;5025747;28;1448;-63
2022/06/18 08:46:14;;;;;;;;;;;;;;;;;;5059478;28;1326;-63
2022/06/18 08:48:57;;;;;;;;;;;;;;;;;;5046423;28;1491;-63
2022/06/18 08:51:23;;;;;;;;;;;;;;;;;;5043641;28;843;-63
2022/06/18 08:53:58;;;;;;;;;;;;;;;;;;5043341;28;1460;-63
2022/06/18 08:56:38;;;;;;;;;;;;;;;;;;5025359;28;887;-63
2022/06/18 08:59:17;;;;;;;;;;;;;;;;;;5042579;28;1634;-63
2022/06/18 09:01:45;;;;;;;;;;;;;;;;;;5036176;28;1342;-63
2022/06/18 09:04:22;;;;;;;;;;;;;;;;;;5042042;28;1473;-64
2022/06/18 09:06:48;;;;;;;;;;;;;;;;;;5043412;28;1549;-64
2022/06/18 09:09:29;;;;;;;;;;;;;;;;;;5042944;28;1521;-64
2022/06/18 09:11:56;;;;;;;;;;;;;;;;;;5041924;28;1424;-63
2022/06/18 09:14:39;;;;;;;;;;;;;;;;;;5040413;28;1894;-64
2022/06/18 09:17:23;;;;;;;;;;;;;;;;;;5040801;28;1487;-63
2022/06/18 09:20:00;;;;;;;;;;;;;;;;;;5047354;28;1366;-63
2022/06/18 09:22:26;;;;;;;;;;;;;;;;;;5044650;28;1641;-63
2022/06/18 09:24:54;;;;;;;;;;;;;;;;;;5047458;28;1299;-63
2022/06/18 09:27:19;;;;;;;;;;;;;;;;;;5042958;28;1518;-64
2022/06/18 09:29:47;;;;;;;;;;;;;;;;;;5041201;28;1460;-64
2022/06/18 09:32:32;;;;;;;;;;;;;;;;;;5037343;28;1433;-64
2022/06/18 09:35:01;;;;;;;;;;;;;;;;;;5031898;28;1957;-64
2022/06/18 09:37:31;;;;;;;;;;;;;;;;;;5042935;28;888;-64
2022/06/18 09:39:58;;;;;;;;;;;;;;;;;;5042169;28;1464;-64
2022/06/18 09:42:41;;;;;;;;;;;;;;;;;;5042306;28;1523;-63
2022/06/18 09:45:27;;;;;;;;;;;;;;;;;;5041974;28;1217;-64
2022/06/18 09:47:52;;;;;;;;;;;;;;;;;;5035651;28;1326;-64
2022/06/18 09:50:17;;;;;;;;;;;;;;;;;;5041795;28;1531;-63
2022/06/18 09:52:45;;;;;;;;;;;;;;;;;;5042762;28;1211;-63
2022/06/18 09:55:28;;;;;;;;;;;;;;;;;;5024567;28;1950;-63
2022/06/18 09:57:55;;;;;;;;;;;;;;;;;;5042469;28;1223;-64
2022/06/18 10:00:23;;;;;;;;;;;;;;;;;;5041180;28;1547;-64
2022/06/18 10:03:01;;;;;;;;;;;;;;;;;;5035961;28;1527;-63
2022/06/18 10:08:31;;;;;;;;;;;;;;;;;;5042021;28;1378;-63
2022/06/18 10:11:07;;;;;;;;;;;;;;;;;;5042120;28;1440;-64
2022/06/18 10:13:35;;;;;;;;;;;;;;;;;;5041920;28;1488;-63
2022/06/18 10:16:02;;;;;;;;;;;;;;;;;;5042360;28;1893;-63
2022/06/18 10:18:47;;;;;;;;;;;;;;;;;;5023934;28;1556;-63
2022/06/18 10:21:18;;;;;;;;;;;;;;;;;;5041575;28;1072;-63
2022/06/18 10:23:44;;;;;;;;;;;;;;;;;;5040275;28;1493;-63
2022/06/18 10:26:09;;;;;;;;;;;;;;;;;;5043234;28;1698;-63
2022/06/18 10:28:37;;;;;;;;;;;;;;;;;;5046879;28;1327;-63
2022/06/18 10:31:05;;;;;;;;;;;;;;;;;;5052701;28;1239;-63
2022/06/18 10:33:46;;;;;;;;;;;;;;;;;;5043915;28;1204;-64
2022/06/18 10:36:15;;;;;;;;;;;;;;;;;;5041509;28;1897;-63
2022/06/18 10:38:48;;;;;;;;;;;;;;;;;;5040915;28;1267;-64
2022/06/18 10:41:24;;;;;;;;;;;;;;;;;;5041269;28;1421;-63
2022/06/18 10:43:58;;;;;;;;;;;;;;;;;;5041260;28;1553;-63
2022/06/18 10:46:24;;;;;;;;;;;;;;;;;;5023389;28;1529;-63
2022/06/18 10:48:51;;;;;;;;;;;;;;;;;;5041473;28;1633;-63
2022/06/18 10:51:19;;;;;;;;;;;;;;;;;;5041648;28;847;-63
2022/06/18 10:53:45;;;;;;;;;;;;;;;;;;5041639;28;1582;-63
2022/06/18 10:56:16;;;;;;;;;;;;;;;;;;5040362;28;1890;-63
2022/06/18 10:58:48;;;;;;;;;;;;;;;;;;5023085;28;1581;-63
2022/06/18 11:01:14;;;;;;;;;;;;;;;;;;5023496;28;1473;-63
2022/06/18 11:03:39;;;;;;;;;;;;;;;;;;5035365;28;1586;-65
2022/06/18 11:06:13;;;;;;;;;;;;;;;;;;5040892;28;1492;-63
2022/06/18 11:08:48;;;;;;;;;;;;;;;;;;5040940;28;1481;-63
2022/06/18 11:11:14;;;;;;;;;;;;;;;;;;5041503;28;886;-62
2022/06/18 11:13:41;;;;;;;;;;;;;;;;;;5040188;28;1331;-63
2022/06/18 11:16:15;;;;;;;;;;;;;;;;;;5041441;28;1957;-63
2022/06/18 11:18:48;;;;;;;;;;;;;;;;;;5041039;28;1551;-63
2022/06/18 11:21:24;;;;;;;;;;;;;;;;;;5040924;28;1421;-63
2022/06/18 11:24:13;;;;;;;;;;;;;;;;;;5040584;28;1491;-62
2022/06/18 11:26:57;;;;;;;;;;;;;;;;;;5012435;28;1397;-63
2022/06/18 11:29:22;;;;;;;;;;;;;;;;;;5039942;28;1251;-63
2022/06/18 11:31:48;;;;;;;;;;;;;;;;;;5041076;28;855;-63
2022/06/18 11:34:25;;;;;;;;;;;;;;;;;;5039141;28;1987;-63
2022/06/18 11:36:58;;;;;;;;;;;;;;;;;;5044411;28;1412;-63
2022/06/18 11:39:23;;;;;;;;;;;;;;;;;;5051354;28;1322;-63
2022/06/18 11:41:49;;;;;;;;;;;;;;;;;;5051232;28;1251;-63
2022/06/18 11:44:23;;;;;;;;;;;;;;;;;;5044994;28;1264;-63
2022/06/18 11:47:10;;;;;;;;;;;;;;;;;;5039212;28;1306;-63
2022/06/18 11:49:59;;;;;;;;;;;;;;;;;;5033056;28;1191;-63
2022/06/18 11:52:24;;;;;;;;;;;;;;;;;;5009119;28;1494;-63
2022/06/18 11:54:49;;;;;;;;;;;;;;;;;;5040928;28;1898;-63
2022/06/18 11:57:14;;;;;;;;;;;;;;;;;;5040770;28;966;-62
2022/06/18 11:59:42;;;;;;;;;;;;;;;;;;5040119;28;1587;-63
2022/06/18 12:02:21;;;;;;;;;;;;;;;;;;5040620;28;1049;-63
2022/06/18 12:04:49;;;;;;;;;;;;;;;;;;5039944;28;1344;-63
2022/06/18 12:07:21;;;;;;;;;;;;;;;;;;5040646;28;1508;-63
2022/06/18 12:09:46;;;;;;;;;;;;;;;;;;5040443;28;1176;-63
2022/06/18 12:12:12;;;;;;;;;;;;;;;;;;5040726;28;898;-63
2022/06/18 12:14:54;;;;;;;;;;;;;;;;;;5040313;28;1959;-63
2022/06/18 12:17:26;;;;;;;;;;;;;;;;;;5040436;28;1456;-63
2022/06/18 12:20:18;;;;;;;;;;;;;;;;;;5036597;28;1461;-63
2022/06/18 12:22:48;;;;;;;;;;;;;;;;;;5023771;28;1181;-63
2022/06/18 12:25:32;;;;;;;;;;;;;;;;;;5040170;28;1563;-62
2022/06/18 12:28:01;;;;;;;;;;;;;;;;;;5039248;28;1472;-63
2022/06/18 12:30:32;;;;;;;;;;;;;;;;;;5039597;28;1288;-63
2022/06/18 12:33:01;;;;;;;;;;;;;;;;;;5039853;28;1330;-63
2022/06/18 12:35:38;;;;;;;;;;;;;;;;;;5040168;28;1910;-63
2022/06/18 12:38:04;;;;;;;;;;;;;;;;;;5038998;28;1437;-63
2022/06/18 12:40:35;;;;;;;;;;;;;;;;;;5040582;28;885;-63
2022/06/18 12:43:06;;;;;;;;;;;;;;;;;;5040105;28;1555;-64
2022/06/18 12:45:39;;;;;;;;;;;;;;;;;;5041650;28;1559;-64
2022/06/18 12:48:12;;;;;;;;;;;;;;;;;;5039672;28;1244;-63
2022/06/18 12:50:59;;;;;;;;;;;;;;;;;;5039554;28;1612;-63
2022/06/18 12:53:31;;;;;;;;;;;;;;;;;;5039708;28;1195;-64
2022/06/18 12:55:59;;;;;;;;;;;;;;;;;;5025668;28;1964;-64
2022/06/18 12:58:32;;;;;;;;;;;;;;;;;;5039717;28;1504;-64
2022/06/18 13:01:02;;;;;;;;;;;;;;;;;;5043185;28;1451;-64
2022/06/18 13:03:33;;;;;;;;;;;;;;;;;;5043363;28;1068;-64
2022/06/18 13:06:23;;;;;;;;;;;;;;;;;;5041150;28;1495;-63
2022/06/18 13:08:51;;;;;;;;;;;;;;;;;;5037067;28;1256;-64
2022/06/18 13:11:25;;;;;;;;;;;;;;;;;;5041932;28;1515;-64
2022/06/18 13:13:53;;;;;;;;;;;;;;;;;;5043058;28;1484;-63
2022/06/18 13:16:22;;;;;;;;;;;;;;;;;;5043221;28;1898;-64
2022/06/18 13:18:47;;;;;;;;;;;;;;;;;;5042253;28;1527;-65
2022/06/18 13:21:12;;;;;;;;;;;;;;;;;;5043080;28;949;-65
2022/06/18 13:29:41;;;;;;;;;;;;;;;;;;5040598;28;1443;-65
2022/06/18 13:32:07;;;;;;;;;;;;;;;;;;5022954;28;922;-64
2022/06/18 13:34:46;;;;;;;;;;;;;;;;;;5030508;28;1960;-64
2022/06/18 13:37:32;;;;;;;;;;;;;;;;;;5042258;28;1425;-64
2022/06/18 13:40:03;;;;;;;;;;;;;;;;;;5042689;28;1184;-64
2022/06/18 13:42:34;;;;;;;;;;;;;;;;;;5042414;28;1550;-64
2022/06/18 13:44:59;;;;;;;;;;;;;;;;;;5042206;28;1452;-64
2022/06/18 13:47:36;;;;;;;;;;;;;;;;;;5042819;28;1033;-65
2022/06/18 13:50:15;;;;;;;;;;;;;;;;;;5040715;28;1938;-65
2022/06/18 13:52:45;;;;;;;;;;;;;;;;;;5023054;28;1476;-65
2022/06/18 13:55:11;;;;;;;;;;;;;;;;;;5041004;28;1953;-65
2022/06/18 13:57:55;;;;;;;;;;;;;;;;;;5022961;28;965;-64
2022/06/18 14:00:30;;;;;;;;;;;;;;;;;;5038320;28;1453;-65
2022/06/18 14:03:01;;;;;;;;;;;;;;;;;;5030156;28;1210;-65
2022/06/18 14:05:52;;;;;;;;;;;;;;;;;;5022943;28;863;-65
2022/06/18 14:08:24;;;;;;;;;;;;;;;;;;5037925;28;1605;-65
2022/06/18 14:10:50;;;;;;;;;;;;;;;;;;5041689;28;1511;-65
2022/06/18 14:13:21;;;;;;;;;;;;;;;;;;5042330;28;835;-64
2022/06/18 14:15:52;;;;;;;;;;;;;;;;;;5042080;28;1894;-65
2022/06/18 14:18:19;;;;;;;;;;;;;;;;;;5039633;28;1412;-64
2022/06/18 14:20:53;;;;;;;;;;;;;;;;;;5041548;28;958;-64
2022/06/18 14:23:45;;;;;;;;;;;;;;;;;;5041784;28;1455;-65
2022/06/18 14:26:13;;;;;;;;;;;;;;;;;;5039144;28;1219;-64
2022/06/18 14:28:42;;;;;;;;;;;;;;;;;;5039942;28;1476;-65
2022/06/18 14:31:10;;;;;;;;;;;;;;;;;;5041700;28;1310;-64
2022/06/18 14:33:35;;;;;;;;;;;;;;;;;;5022070;28;825;-65
2022/06/18 14:36:12;;;;;;;;;;;;;;;;;;5025351;28;1898;-64
2022/06/18 14:38:38;;;;;;;;;;;;;;;;;;5040284;28;1347;-65
2022/06/18 14:44:03;;;;;;;;;;;;;;;;;;5042067;28;1452;-65
2022/06/18 14:46:43;;;;;;;;;;;;;;;;;;5041661;28;1489;-65
2022/06/18 14:49:11;;;;;;;;;;;;;;;;;;5022914;28;1468;-65
2022/06/18 14:52:12;;;;;;;;;;;;;;;;;;5041747;28;1267;-64
2022/06/18 14:54:40;;;;;;;;;;;;;;;;;;4984750;28;1952;-64
2022/06/18 14:57:12;;;;;;;;;;;;;;;;;;5023341;28;1533;-65
2022/06/18 14:59:38;;;;;;;;;;;;;;;;;;5041461;28;1513;-65
2022/06/18 15:02:32;;;;;;;;;;;;;;;;;;5041231;28;1503;-65
2022/06/18 15:04:58;;;;;;;;;;;;;;;;;;4986718;28;1506;-65
2022/06/18 15:07:31;;;;;;;;;;;;;;;;;;5041238;28;1520;-65
2022/06/18 15:10:01;;;;;;;;;;;;;;;;;;5040824;28;1172;-64
2022/06/18 15:12:26;;;;;;;;;;;;;;;;;;5041509;28;890;-66
2022/06/18 15:14:56;;;;;;;;;;;;;;;;;;5039348;28;1981;-65
2022/06/18 15:19:54;;;;;;;;;;;;;;;;;;5040096;28;1522;-65
2022/06/18 15:23:18;;;;;;;;;;;;;;;;;;5037307;28;1552;-65
2022/06/18 15:25:24;;;;;;;;;;;;;;;;;;5026824;28;1553;-66
2022/06/18 15:27:56;;;;;;;;;;;;;;;;;;5039783;28;1532;-66
2022/06/18 15:30:24;;;;;;;;;;;;;;;;;;5040763;28;1278;-66
2022/06/18 15:33:00;;;;;;;;;;;;;;;;;;5040744;28;891;-66
2022/06/18 15:35:26;;;;;;;;;;;;;;;;;;5040966;28;1902;-66
2022/06/18 15:37:53;;;;;;;;;;;;;;;;;;5041009;28;1185;-66
2022/06/18 15:40:29;;;;;;;;;;;;;;;;;;5040813;28;2054;-65
2022/06/18 15:42:57;;;;;;;;;;;;;;;;;;5040736;28;1444;-66
2022/06/18 15:45:23;;;;;;;;;;;;;;;;;;5024760;28;1516;-66
2022/06/18 15:47:50;;;;;;;;;;;;;;;;;;5040391;28;1497;-66
2022/06/18 15:50:19;;;;;;;;;;;;;;;;;;5040505;28;1252;-64
2022/06/18 15:52:44;;;;;;;;;;;;;;;;;;5040813;28;1479;-66
2022/06/18 15:55:13;;;;;;;;;;;;;;;;;;5038645;28;1878;-65
2022/06/18 15:57:38;;;;;;;;;;;;;;;;;;5040963;28;1204;-65
2022/06/18 16:00:16;;;;;;;;;;;;;;;;;;5040323;28;1434;-65
2022/06/18 16:02:42;;;;;;;;;;;;;;;;;;5040264;28;1053;-66
2022/06/18 16:05:07;;;;;;;;;;;;;;;;;;5040662;28;1519;-66
2022/06/18 16:07:46;;;;;;;;;;;;;;;;;;5040665;28;985;-65
2022/06/18 16:10:28;;;;;;;;;;;;;;;;;;5040139;28;1696;-66
2022/06/18 16:12:57;;;;;;;;;;;;;;;;;;5040500;28;1231;-66
2022/06/18 16:15:28;;;;;;;;;;;;;;;;;;5037304;28;1893;-66
2022/06/18 16:17:54;;;;;;;;;;;;;;;;;;5040870;28;1300;-62
2022/06/18 16:20:27;;;;;;;;;;;;;;;;;;5038023;28;1588;-68
2022/06/18 16:23:12;;;;;;;;;;;;;;;;;;5035333;28;1486;-69
2022/06/18 16:25:42;;;;;;;;;;;;;;;;;;5011634;28;1256;-67
2022/06/18 16:28:15;;;;;;;;;;;;;;;;;;5031345;28;1792;-65
2022/06/18 16:30:41;;;;;;;;;;;;;;;;;;5017406;28;1484;-65
2022/06/18 16:33:09;;;;;;;;;;;;;;;;;;5034648;28;1307;-65
2022/06/18 16:35:34;;;;;;;;;;;;;;;;;;5034264;28;1953;-65
2022/06/18 16:38:20;;;;;;;;;;;;;;;;;;5040941;28;1446;-64
2022/06/18 16:41:05;;;;;;;;;;;;;;;;;;5043789;28;1217;-66
2022/06/18 16:43:30;;;;;;;;;;;;;;;;;;5025246;28;1559;-65
2022/06/18 16:45:55;;;;;;;;;;;;;;;;;;5043763;28;1160;-63
2022/06/18 16:48:42;;;;;;;;;;;;;;;;;;5043278;28;1334;-65
2022/06/18 16:51:07;;;;;;;;;;;;;;;;;;5023538;28;1262;-65
2022/06/18 16:53:34;;;;;;;;;;;;;;;;;;5040905;28;804;-65
2022/06/18 16:56:00;;;;;;;;;;;;;;;;;;5041570;28;1902;-65
2022/06/18 16:58:26;;;;;;;;;;;;;;;;;;5042955;28;1343;-66
2022/06/18 17:00:51;;;;;;;;;;;;;;;;;;5043249;28;1481;-65
2022/06/18 17:03:17;;;;;;;;;;;;;;;;;;5043260;28;1549;-66
2022/06/18 17:05:43;;;;;;;;;;;;;;;;;;5043437;28;1136;-65
2022/06/18 17:08:08;;;;;;;;;;;;;;;;;;5043309;28;1203;-65
2022/06/18 17:10:33;;;;;;;;;;;;;;;;;;5042510;28;992;-65
2022/06/18 17:12:59;;;;;;;;;;;;;;;;;;5043328;28;1021;-66
2022/06/18 17:15:24;;;;;;;;;;;;;;;;;;5042924;28;1957;-65
2022/06/18 17:17:49;;;;;;;;;;;;;;;;;;5043072;28;1464;-65
2022/06/18 17:20:16;;;;;;;;;;;;;;;;;;5042884;28;1711;-65
2022/06/18 17:22:45;;;;;;;;;;;;;;;;;;5043248;28;1532;-65
2022/06/18 17:33:23;;;;;;;;;;;;;;;;;;5042662;28;1484;-65
2022/06/18 17:35:49;;;;;;;;;;;;;;;;;;5042922;28;1898;-64
2022/06/18 17:38:15;;;;;;;;;;;;;;;;;;5042911;28;1278;-64
2022/06/18 17:40:41;;;;;;;;;;;;;;;;;;5043058;28;819;-65
2022/06/18 17:43:09;;;;;;;;;;;;;;;;;;5041832;28;1365;-64
2022/06/18 17:45:34;;;;;;;;;;;;;;;;;;5033884;28;1378;-64
2022/06/18 17:47:59;;;;;;;;;;;;;;;;;;5041732;28;1280;-64